Time;durP1;ratioP1;P1;durP2;ratioP2;P2;SDS_P1;SDS_P2;PMS_P1;PMS_P2;Temp;Humidity;BMP_temperature;BMP_pressure;BME280_temperature;BME280_humidity;BME280_pressure;Samples;Min_cycle;Max_cycle;Signal;HPM_P1;HPM_P2
2021/11/23 00:00:16;;;;;;;;;;;;;;;21.11;34.28;96329.78;1042137;28;2160;-56
2021/11/23 00:00:47;;;;;;;;;;;;;;;21.11;34.42;96328.97;1043869;28;1187;-56
2021/11/23 00:01:17;;;;;;;;;;;;;;;21.12;34.61;96330.56;1040241;28;1131;-56
2021/11/23 00:01:48;;;;;;;;;;;;;;;21.11;34.61;96331.63;1044244;28;1149;-55
2021/11/23 00:02:18;;;;;;;;;;;;;;;21.12;34.38;96330.56;1041944;28;2132;-57
2021/11/23 00:02:48;;;;;;;;;;;;;;;21.12;34.53;96327.94;1044502;28;1080;-57
2021/11/23 00:03:19;;;;;;;;;;;;;;;21.12;34.66;96331.38;1040318;28;1605;-56
2021/11/23 00:03:49;;;;;;;;;;;;;;;21.12;34.31;96330.56;1043904;28;1537;-55
2021/11/23 00:04:20;;;;;;;;;;;;;;;21.12;34.23;96338.47;1044215;28;1123;-56
2021/11/23 00:04:50;;;;;;;;;;;;;;;21.12;34.53;96333.22;1044354;28;1021;-56
2021/11/23 00:05:21;;;;;;;;;;;;;;;21.11;34.90;96342.94;1042108;28;2096;-54
2021/11/23 00:05:51;;;;;;;;;;;;;;;21.11;34.24;96335.03;1044898;28;1198;-53
2021/11/23 00:06:21;;;;;;;;;;;;;;;21.13;34.47;96334.78;1044699;28;1127;-56
2021/11/23 00:06:52;;;;;;;;;;;;;;;21.13;34.75;96334.78;1044540;28;1163;-56
2021/11/23 00:07:22;;;;;;;;;;;;;;;21.13;34.48;96342.69;1044386;28;1064;-57
2021/11/23 00:07:53;;;;;;;;;;;;;;;21.12;34.24;96327.94;1044702;28;1041;-54
2021/11/23 00:08:23;;;;;;;;;;;;;;;21.12;34.25;96338.47;1044372;28;1134;-57
2021/11/23 00:08:53;;;;;;;;;;;;;;;21.12;34.52;96341.91;1044438;28;974;-58
2021/11/23 00:09:24;;;;;;;;;;;;;;;21.13;34.35;96347.97;1044300;28;1091;-57
2021/11/23 00:09:54;;;;;;;;;;;;;;;21.12;34.37;96346.38;1045057;28;1033;-58
2021/11/23 00:10:24;;;;;;;;;;;;;;;21.11;34.39;96344.78;1043238;28;1879;-57
2021/11/23 00:10:55;;;;;;;;;;;;;;;21.12;34.42;96341.13;1045372;28;1080;-57
2021/11/23 00:11:25;;;;;;;;;;;;;;;21.11;34.45;96350.88;1045169;28;1103;-57
2021/11/23 00:11:55;;;;;;;;;;;;;;;21.11;34.55;96348.22;1045335;28;1056;-54
2021/11/23 00:12:26;;;;;;;;;;;;;;;21.11;34.27;96347.44;1044996;28;1245;-55
2021/11/23 00:12:56;;;;;;;;;;;;;;;21.12;34.37;96349.03;1044380;28;1616;-55
2021/11/23 00:13:27;;;;;;;;;;;;;;;21.11;34.20;96339.53;1044597;28;1095;-58
2021/11/23 00:13:57;;;;;;;;;;;;;;;21.12;34.45;96347.19;1044632;28;1277;-58
2021/11/23 00:14:27;;;;;;;;;;;;;;;21.11;34.42;96348.22;1044829;28;1084;-54
2021/11/23 00:14:58;;;;;;;;;;;;;;;21.11;34.18;96350.06;1045403;28;1113;-58
2021/11/23 00:15:28;;;;;;;;;;;;;;;21.10;34.38;96345.84;1043536;28;2302;-57
2021/11/23 00:15:58;;;;;;;;;;;;;;;21.11;34.21;96347.44;1044707;28;1186;-54
2021/11/23 00:16:29;;;;;;;;;;;;;;;21.10;34.60;96345.84;1045125;28;1387;-55
2021/11/23 00:16:59;;;;;;;;;;;;;;;21.09;34.15;96347.69;1045290;28;1111;-58
2021/11/23 00:17:29;;;;;;;;;;;;;;;21.10;34.21;96345.84;1045081;28;1902;-57
2021/11/23 00:18:00;;;;;;;;;;;;;;;21.10;34.04;96345.84;1043528;28;1185;-58
2021/11/23 00:18:30;;;;;;;;;;;;;;;21.10;34.25;96343.22;1044857;28;1111;-57
2021/11/23 00:19:01;;;;;;;;;;;;;;;21.10;34.33;96349.28;1044411;28;1294;-56
2021/11/23 00:19:31;;;;;;;;;;;;;;;21.08;34.08;96349.53;1043300;28;1917;-56
2021/11/23 00:20:02;;;;;;;;;;;;;;;21.10;34.01;96348.50;1045376;28;1252;-56
2021/11/23 00:20:32;;;;;;;;;;;;;;;21.09;34.14;96350.34;1044555;28;2144;-56
2021/11/23 00:21:03;;;;;;;;;;;;;;;21.09;34.34;96350.34;1043595;28;1184;-55
2021/11/23 00:21:33;;;;;;;;;;;;;;;21.09;34.42;96342.44;1043348;28;1198;-55
2021/11/23 00:22:04;;;;;;;;;;;;;;;21.10;34.32;96354.56;1045188;28;1052;-58
2021/11/23 00:22:34;;;;;;;;;;;;;;;21.10;34.25;96348.50;1043863;28;1513;-58
2021/11/23 00:23:04;;;;;;;;;;;;;;;21.10;34.27;96348.50;1044803;28;1084;-58
2021/11/23 00:23:35;;;;;;;;;;;;;;;21.10;34.32;96354.56;1044666;28;1122;-56
2021/11/23 00:24:05;;;;;;;;;;;;;;;21.10;34.27;96349.28;1044968;28;1097;-56
2021/11/23 00:24:36;;;;;;;;;;;;;;;21.10;34.28;96348.50;1041880;28;1581;-57
2021/11/23 00:25:07;;;;;;;;;;;;;;;21.10;34.07;96348.50;1044073;28;1824;-57
2021/11/23 00:25:37;;;;;;;;;;;;;;;21.10;34.32;96343.22;1043537;28;1484;-56
2021/11/23 00:26:07;;;;;;;;;;;;;;;21.10;34.40;96348.50;1044860;28;1097;-57
2021/11/23 00:26:38;;;;;;;;;;;;;;;21.09;34.34;96350.34;1044956;28;1146;-57
2021/11/23 00:27:08;;;;;;;;;;;;;;;21.10;34.19;96343.22;1045009;28;1132;-58
2021/11/23 00:27:38;;;;;;;;;;;;;;;21.10;34.25;96344.03;1044917;28;1131;-54
2021/11/23 00:28:09;;;;;;;;;;;;;;;21.10;34.06;96348.50;1044196;28;1017;-56
2021/11/23 00:28:39;;;;;;;;;;;;;;;21.09;34.22;96347.69;1044833;28;1793;-57
2021/11/23 00:29:10;;;;;;;;;;;;;;;21.10;33.87;96348.50;1045147;28;851;-53
2021/11/23 00:29:40;;;;;;;;;;;;;;;21.09;34.19;96350.34;1044315;28;1143;-58
2021/11/23 00:30:11;;;;;;;;;;;;;;;21.08;34.01;96352.16;1043231;28;1859;-58
2021/11/23 00:30:43;;;;;;;;;;;;;;;21.09;33.87;96352.97;1045256;28;1024;-58
2021/11/23 00:31:14;;;;;;;;;;;;;;;21.08;34.15;96344.25;1045561;28;851;-55
2021/11/23 00:31:44;;;;;;;;;;;;;;;21.10;34.18;96348.50;1045104;28;1143;-56
2021/11/23 00:32:14;;;;;;;;;;;;;;;21.09;34.28;96345.06;1043971;28;1887;-56
2021/11/23 00:32:45;;;;;;;;;;;;;;;21.10;34.10;96349.28;1045232;28;1183;-57
2021/11/23 00:33:15;;;;;;;;;;;;;;;21.10;34.26;96351.94;1043344;28;1704;-57
2021/11/23 00:33:45;;;;;;;;;;;;;;;21.10;34.06;96346.66;1045099;28;1349;-56
2021/11/23 00:34:16;;;;;;;;;;;;;;;21.08;34.21;96349.53;1044865;28;998;-58
2021/11/23 00:34:46;;;;;;;;;;;;;;;21.08;34.26;96347.97;1044728;28;1190;-57
2021/11/23 00:35:18;;;;;;;;;;;;;;;21.10;34.17;96345.84;1044432;28;2220;-58
2021/11/23 00:35:49;;;;;;;;;;;;;;;21.08;34.08;96350.59;1045184;28;1048;-56
2021/11/23 00:36:19;;;;;;;;;;;;;;;21.10;34.05;96351.13;1045147;28;1131;-57
2021/11/23 00:36:49;;;;;;;;;;;;;;;21.10;34.03;96353.78;1045288;28;1127;-58
2021/11/23 00:37:19;;;;;;;;;;;;;;;21.10;34.42;96351.13;1045364;28;1910;-57
2021/11/23 00:37:50;;;;;;;;;;;;;;;21.10;34.29;96349.28;1044807;28;1530;-54
2021/11/23 00:38:21;;;;;;;;;;;;;;;21.10;34.42;96357.19;1044484;28;1241;-55
2021/11/23 00:38:51;;;;;;;;;;;;;;;21.09;34.24;96352.97;1044963;28;1139;-55
2021/11/23 00:39:21;;;;;;;;;;;;;;;21.10;34.17;96351.13;1045022;28;1178;-57
2021/11/23 00:39:52;;;;;;;;;;;;;;;21.11;34.21;96347.44;1045193;28;1151;-53
2021/11/23 00:40:22;;;;;;;;;;;;;;;21.10;34.26;96351.13;1043372;28;1855;-55
2021/11/23 00:40:53;;;;;;;;;;;;;;;21.10;34.03;96359.03;1044967;28;1017;-58
2021/11/23 00:41:23;;;;;;;;;;;;;;;21.10;34.26;96351.94;1043182;28;1667;-58
2021/11/23 00:41:54;;;;;;;;;;;;;;;21.10;34.13;96353.78;1044750;28;1037;-58
2021/11/23 00:42:25;;;;;;;;;;;;;;;21.10;34.14;96357.19;1044344;28;1111;-57
2021/11/23 00:42:57;;;;;;;;;;;;;;;21.10;34.13;96364.31;1045211;28;1041;-56
2021/11/23 00:43:29;;;;;;;;;;;;;;;21.09;34.17;96347.69;1043707;28;1082;-54
2021/11/23 00:43:59;;;;;;;;;;;;;;;21.10;34.35;96353.78;1044975;28;1052;-54
2021/11/23 00:44:29;;;;;;;;;;;;;;;21.10;34.31;96354.56;1043638;28;1482;-56
2021/11/23 00:45:00;;;;;;;;;;;;;;;21.10;34.22;96353.78;1044832;28;1235;-56
2021/11/23 00:45:34;;;;;;;;;;;;;;;21.09;33.92;96347.69;1044172;28;1863;-55
2021/11/23 00:46:04;;;;;;;;;;;;;;;21.09;33.78;96355.59;1045261;28;1068;-57
2021/11/23 00:46:34;;;;;;;;;;;;;;;21.09;34.46;96358.25;1045118;28;1126;-56
2021/11/23 00:47:04;;;;;;;;;;;;;;;21.10;34.05;96356.41;1044906;28;1749;-57
2021/11/23 00:47:35;;;;;;;;;;;;;;;21.09;33.84;96352.97;1045376;28;1143;-54
2021/11/23 00:48:05;;;;;;;;;;;;;;;21.10;33.66;96359.03;1044230;28;1037;-55
2021/11/23 00:48:35;;;;;;;;;;;;;;;21.09;33.82;96358.25;1045196;28;1222;-56
2021/11/23 00:49:06;;;;;;;;;;;;;;;21.08;34.01;96348.75;1045207;28;1045;-53
2021/11/23 00:49:36;;;;;;;;;;;;;;;21.08;33.79;96357.44;1045241;28;1095;-58
2021/11/23 00:50:07;;;;;;;;;;;;;;;21.07;33.93;96352.44;1045215;28;1198;-57
2021/11/23 00:50:37;;;;;;;;;;;;;;;21.08;33.75;96361.16;1043135;28;2259;-58
2021/11/23 00:51:08;;;;;;;;;;;;;;;21.08;33.90;96358.50;1045080;28;921;-57
2021/11/23 00:51:38;;;;;;;;;;;;;;;21.08;34.08;96353.25;1044692;28;1287;-57
2021/11/23 00:52:09;;;;;;;;;;;;;;;21.08;33.76;96353.25;1044663;28;1088;-57
2021/11/23 00:52:39;;;;;;;;;;;;;;;21.08;33.97;96361.94;1044706;28;1280;-56
2021/11/23 00:53:09;;;;;;;;;;;;;;;21.08;34.00;96355.88;1044559;28;1101;-58
2021/11/23 00:53:40;;;;;;;;;;;;;;;21.06;34.14;96354.28;1045276;28;1123;-56
2021/11/23 00:54:10;;;;;;;;;;;;;;;21.07;34.08;96352.44;1041362;28;1123;-55
2021/11/23 00:54:41;;;;;;;;;;;;;;;21.08;34.08;96350.59;1040512;28;1793;-56
2021/11/23 00:55:11;;;;;;;;;;;;;;;21.08;34.20;96360.06;1044437;28;1763;-58
2021/11/23 00:55:41;;;;;;;;;;;;;;;21.08;33.99;96360.06;1044277;28;1468;-54
2021/11/23 00:56:12;;;;;;;;;;;;;;;21.08;33.97;96361.16;1044319;28;1095;-58
2021/11/23 00:56:43;;;;;;;;;;;;;;;21.09;33.97;96358.25;1044954;28;1182;-57
2021/11/23 00:57:13;;;;;;;;;;;;;;;21.10;34.10;96356.41;1045119;28;844;-55
2021/11/23 00:57:44;;;;;;;;;;;;;;;21.08;34.18;96362.72;1045011;28;1910;-57
2021/11/23 00:58:14;;;;;;;;;;;;;;;21.08;34.08;96365.34;1044571;28;1178;-56
2021/11/23 00:58:45;;;;;;;;;;;;;;;21.09;33.96;96358.25;1044847;28;1177;-55
2021/11/23 00:59:15;;;;;;;;;;;;;;;21.08;34.15;96362.72;1044685;28;1178;-53
2021/11/23 00:59:45;;;;;;;;;;;;;;;21.08;34.20;96364.59;1044697;28;1174;-56
2021/11/23 01:00:16;;;;;;;;;;;;;;;21.09;33.90;96368.78;1044533;28;2227;-58
2021/11/23 01:00:46;;;;;;;;;;;;;;;21.08;33.91;96361.94;1044718;28;1405;-58
2021/11/23 01:01:16;;;;;;;;;;;;;;;21.08;33.90;96361.16;1045254;28;741;-58
2021/11/23 01:01:47;;;;;;;;;;;;;;;21.08;33.79;96371.69;1045011;28;1194;-57
2021/11/23 01:02:17;;;;;;;;;;;;;;;21.08;34.21;96363.78;1045029;28;1196;-58
2021/11/23 01:02:47;;;;;;;;;;;;;;;21.08;33.97;96365.34;1044993;28;1111;-52
2021/11/23 01:03:18;;;;;;;;;;;;;;;21.08;34.00;96366.41;1044024;28;1162;-56
2021/11/23 01:03:48;;;;;;;;;;;;;;;21.08;34.07;96371.69;1044172;28;1434;-55
2021/11/23 01:04:18;;;;;;;;;;;;;;;21.08;34.01;96364.59;1043992;28;1200;-58
2021/11/23 01:04:49;;;;;;;;;;;;;;;21.08;33.85;96368.00;1044631;28;1088;-55
2021/11/23 01:05:19;;;;;;;;;;;;;;;21.08;33.97;96361.16;1043887;28;1871;-58
2021/11/23 01:05:50;;;;;;;;;;;;;;;21.09;33.99;96376.69;1044597;28;2011;-58
2021/11/23 01:06:20;;;;;;;;;;;;;;;21.08;33.75;96369.06;1043747;28;1593;-55
2021/11/23 01:06:50;;;;;;;;;;;;;;;21.08;33.93;96363.78;1045206;28;1084;-55
2021/11/23 01:07:21;;;;;;;;;;;;;;;21.08;33.85;96361.16;1045013;28;1194;-58
2021/11/23 01:07:51;;;;;;;;;;;;;;;21.09;33.54;96368.78;1045158;28;1045;-54
2021/11/23 01:08:22;;;;;;;;;;;;;;;21.08;33.70;96369.06;1044903;28;1079;-58
2021/11/23 01:08:52;;;;;;;;;;;;;;;21.08;33.93;96363.78;1045167;28;1127;-54
2021/11/23 01:09:23;;;;;;;;;;;;;;;21.08;33.94;96371.69;1045094;28;1166;-55
2021/11/23 01:09:53;;;;;;;;;;;;;;;21.06;33.76;96367.47;1044870;28;1049;-58
2021/11/23 01:10:24;;;;;;;;;;;;;;;21.06;34.04;96370.09;1039991;28;1945;-58
2021/11/23 01:10:57;;;;;;;;;;;;;;;21.06;33.92;96375.38;1040549;28;895;-57
2021/11/23 01:11:27;;;;;;;;;;;;;;;21.08;33.72;96366.41;1040541;28;1340;-54
2021/11/23 01:11:58;;;;;;;;;;;;;;;21.06;34.10;96370.09;1044670;28;1104;-57
2021/11/23 01:12:28;;;;;;;;;;;;;;;21.08;33.94;96375.13;1043834;28;1374;-56
2021/11/23 01:12:58;;;;;;;;;;;;;;;21.08;34.05;96371.69;1042320;28;2000;-57
2021/11/23 01:13:29;;;;;;;;;;;;;;;21.06;34.09;96375.38;1044905;28;1069;-56
2021/11/23 01:13:59;;;;;;;;;;;;;;;21.08;34.04;96374.31;1044954;28;1205;-55
2021/11/23 01:14:29;;;;;;;;;;;;;;;21.08;33.92;96371.69;1044109;28;994;-56
2021/11/23 01:14:59;;;;;;;;;;;;;;;21.08;34.00;96370.63;1045205;28;1061;-56
2021/11/23 01:15:30;;;;;;;;;;;;;;;21.08;34.12;96376.97;1044173;28;1915;-54
2021/11/23 01:16:00;;;;;;;;;;;;;;;21.08;34.09;96376.97;1044872;28;1096;-56
2021/11/23 01:16:31;;;;;;;;;;;;;;;21.08;33.94;96376.97;1044660;28;1336;-52
2021/11/23 01:17:01;;;;;;;;;;;;;;;21.08;33.84;96382.25;1044624;28;1368;-57
2021/11/23 01:17:31;;;;;;;;;;;;;;;21.06;33.72;96367.47;1044860;28;1906;-55
2021/11/23 01:18:02;;;;;;;;;;;;;;;21.06;33.85;96374.59;1043745;28;978;-55
2021/11/23 01:18:32;;;;;;;;;;;;;;;21.06;33.83;96375.38;1044832;28;1194;-57
2021/11/23 01:19:03;;;;;;;;;;;;;;;21.06;33.94;96374.59;1045236;28;1197;-57
2021/11/23 01:19:33;;;;;;;;;;;;;;;21.06;33.73;96374.59;1044832;28;1103;-57
2021/11/23 01:20:04;;;;;;;;;;;;;;;21.06;33.91;96378.00;1043302;28;1366;-58
2021/11/23 01:20:36;;;;;;;;;;;;;;;21.06;33.73;96378.00;1042733;28;1900;-57
2021/11/23 01:21:08;;;;;;;;;;;;;;;21.06;34.12;96372.72;1044295;28;1238;-56
2021/11/23 01:21:39;;;;;;;;;;;;;;;21.06;34.07;96375.38;1044503;28;1096;-56
2021/11/23 01:22:09;;;;;;;;;;;;;;;21.06;33.89;96379.88;1044178;28;1025;-57
2021/11/23 01:22:40;;;;;;;;;;;;;;;21.06;33.94;96367.47;1044746;28;1143;-56
2021/11/23 01:23:11;;;;;;;;;;;;;;;21.06;34.00;96379.88;1035277;28;1655;-58
2021/11/23 01:23:41;;;;;;;;;;;;;;;21.06;33.87;96380.63;1038836;28;1049;-58
2021/11/23 01:24:12;;;;;;;;;;;;;;;21.06;33.84;96379.88;1044804;28;831;-58
2021/11/23 01:24:42;;;;;;;;;;;;;;;21.05;33.87;96375.63;1039955;28;1225;-56
2021/11/23 01:25:12;;;;;;;;;;;;;;;21.06;33.83;96385.13;1040621;28;1218;-57
2021/11/23 01:25:43;;;;;;;;;;;;;;;21.05;33.80;96384.34;1039275;28;1866;-58
2021/11/23 01:26:13;;;;;;;;;;;;;;;21.04;33.87;96381.97;1040362;28;1667;-56
2021/11/23 01:26:44;;;;;;;;;;;;;;;21.04;33.94;96385.38;1043996;28;1194;-57
2021/11/23 01:27:14;;;;;;;;;;;;;;;21.05;33.64;96379.06;1044783;28;786;-58
2021/11/23 01:27:44;;;;;;;;;;;;;;;21.03;33.49;96378.53;1045073;28;1131;-58
2021/11/23 01:28:15;;;;;;;;;;;;;;;21.05;33.72;96383.53;1044494;28;1653;-58
2021/11/23 01:28:46;;;;;;;;;;;;;;;21.05;33.66;96388.81;1045246;28;1178;-58
2021/11/23 01:29:16;;;;;;;;;;;;;;;21.04;33.80;96382.75;1045010;28;1147;-58
2021/11/23 01:29:46;;;;;;;;;;;;;;;21.04;33.75;96381.97;1045136;28;1300;-58
2021/11/23 01:30:17;;;;;;;;;;;;;;;21.03;33.76;96380.38;1044336;28;2233;-58
2021/11/23 01:30:47;;;;;;;;;;;;;;;21.03;33.89;96389.09;1042039;28;986;-55
2021/11/23 01:31:18;;;;;;;;;;;;;;;21.03;33.79;96381.19;1044374;28;2152;-56
2021/11/23 01:31:48;;;;;;;;;;;;;;;21.04;34.08;96381.97;1043549;28;1351;-58
2021/11/23 01:32:18;;;;;;;;;;;;;;;21.04;34.02;96387.25;1041146;28;1734;-57
2021/11/23 01:32:49;;;;;;;;;;;;;;;21.04;33.81;96384.63;1044844;28;1101;-58
2021/11/23 01:33:19;;;;;;;;;;;;;;;21.04;33.99;96379.34;1043705;28;1174;-59
2021/11/23 01:33:49;;;;;;;;;;;;;;;21.03;33.93;96383.81;1038665;28;1752;-57
2021/11/23 01:34:20;;;;;;;;;;;;;;;21.04;33.70;96385.38;1043070;28;1784;-55
2021/11/23 01:34:50;;;;;;;;;;;;;;;21.03;33.82;96375.91;1044581;28;1092;-58
2021/11/23 01:35:20;;;;;;;;;;;;;;;21.02;33.61;96376.94;1044878;28;1205;-58
2021/11/23 01:35:51;;;;;;;;;;;;;;;21.04;33.71;96381.97;1044378;28;1050;-58
2021/11/23 01:36:21;;;;;;;;;;;;;;;21.04;33.93;96385.38;1044111;28;1252;-57
2021/11/23 01:36:52;;;;;;;;;;;;;;;21.04;33.74;96379.34;1045114;28;1176;-54
2021/11/23 01:37:22;;;;;;;;;;;;;;;21.03;33.65;96386.44;1045082;28;1923;-56
2021/11/23 01:37:52;;;;;;;;;;;;;;;21.03;33.81;96381.19;1044838;28;1162;-57
2021/11/23 01:38:23;;;;;;;;;;;;;;;21.04;33.73;96382.75;1044708;28;1230;-54
2021/11/23 01:38:53;;;;;;;;;;;;;;;21.03;33.87;96381.19;1044065;28;1961;-58
2021/11/23 01:39:24;;;;;;;;;;;;;;;21.03;33.85;96383.81;1045124;28;1166;-58
2021/11/23 01:39:55;;;;;;;;;;;;;;;21.03;33.65;96377.75;1044760;28;1166;-57
2021/11/23 01:40:25;;;;;;;;;;;;;;;21.03;33.68;96386.44;1045103;28;1143;-58
2021/11/23 01:40:56;;;;;;;;;;;;;;;21.02;33.68;96382.22;1044552;28;1192;-58
2021/11/23 01:41:26;;;;;;;;;;;;;;;21.03;33.96;96375.91;1044565;28;1147;-56
2021/11/23 01:41:57;;;;;;;;;;;;;;;21.03;33.78;96375.09;1044388;28;1112;-58
2021/11/23 01:42:27;;;;;;;;;;;;;;;21.03;33.81;96381.19;1043874;28;1225;-57
2021/11/23 01:42:57;;;;;;;;;;;;;;;21.04;33.67;96379.34;1044762;28;1084;-57
2021/11/23 01:43:28;;;;;;;;;;;;;;;21.03;33.65;96375.91;1042910;28;1699;-59
2021/11/23 01:43:58;;;;;;;;;;;;;;;21.03;34.02;96375.09;1043698;28;1992;-58
2021/11/23 01:44:28;;;;;;;;;;;;;;;21.03;33.80;96380.38;1043994;28;955;-55
2021/11/23 01:44:59;;;;;;;;;;;;;;;21.03;33.97;96380.38;1045096;28;1174;-56
2021/11/23 01:45:29;;;;;;;;;;;;;;;21.02;33.68;96379.56;1044856;28;1249;-56
2021/11/23 01:45:59;;;;;;;;;;;;;;;21.02;33.74;96374.31;1044975;28;1048;-55
2021/11/23 01:46:30;;;;;;;;;;;;;;;21.02;33.65;96376.94;1044393;28;1213;-56
2021/11/23 01:47:00;;;;;;;;;;;;;;;21.02;33.75;96379.56;1044040;28;1748;-54
2021/11/23 01:47:30;;;;;;;;;;;;;;;21.03;33.93;96381.19;1042911;28;1155;-56
2021/11/23 01:48:01;;;;;;;;;;;;;;;21.03;33.92;96381.19;1044078;28;1095;-59
2021/11/23 01:48:32;;;;;;;;;;;;;;;21.02;33.81;96379.56;1044928;28;1135;-55
2021/11/23 01:49:02;;;;;;;;;;;;;;;21.03;33.78;96378.53;1043761;28;1953;-58
2021/11/23 01:49:33;;;;;;;;;;;;;;;21.02;33.83;96376.94;1044654;28;1114;-58
2021/11/23 01:50:04;;;;;;;;;;;;;;;21.02;33.94;96379.56;1044722;28;1037;-58
2021/11/23 01:50:34;;;;;;;;;;;;;;;21.03;33.46;96375.09;1044580;28;1131;-57
2021/11/23 01:51:05;;;;;;;;;;;;;;;21.02;33.64;96369.03;1043853;28;1457;-58
2021/11/23 01:51:35;;;;;;;;;;;;;;;21.02;33.93;96379.56;1042636;28;1115;-58
2021/11/23 01:52:06;;;;;;;;;;;;;;;21.02;33.59;96379.56;1042695;28;1619;-54
2021/11/23 01:52:36;;;;;;;;;;;;;;;21.01;33.81;96377.97;1044139;28;1878;-58
2021/11/23 01:53:07;;;;;;;;;;;;;;;21.01;33.50;96375.34;1042627;28;1603;-57
2021/11/23 01:53:37;;;;;;;;;;;;;;;21.01;33.58;96375.34;1040461;28;1750;-58
2021/11/23 01:54:07;;;;;;;;;;;;;;;21.02;33.86;96379.56;1041666;28;1977;-59
2021/11/23 01:54:38;;;;;;;;;;;;;;;21.02;33.76;96378.78;1042044;28;1636;-54
2021/11/23 01:55:09;;;;;;;;;;;;;;;21.01;33.98;96375.34;1040650;28;1140;-58
2021/11/23 01:55:42;;;;;;;;;;;;;;;21.00;33.93;96376.38;1039272;28;1538;-56
2021/11/23 01:56:12;;;;;;;;;;;;;;;21.02;33.79;96373.50;1036192;28;1549;-58
2021/11/23 01:56:43;;;;;;;;;;;;;;;21.01;33.76;96375.34;1035747;28;1728;-58
2021/11/23 01:57:13;;;;;;;;;;;;;;;21.02;33.78;96374.31;1044150;28;1162;-58
2021/11/23 01:57:44;;;;;;;;;;;;;;;21.02;33.92;96376.94;1042425;28;1989;-59
2021/11/23 01:58:15;;;;;;;;;;;;;;;21.02;33.46;96371.66;1043576;28;1933;-57
2021/11/23 01:58:45;;;;;;;;;;;;;;;21.01;33.53;96372.72;1044684;28;1206;-58
2021/11/23 01:59:16;;;;;;;;;;;;;;;21.02;33.46;96373.50;1043066;28;1902;-57
2021/11/23 01:59:47;;;;;;;;;;;;;;;21.02;33.68;96370.88;1043444;28;1139;-56
2021/11/23 02:00:17;;;;;;;;;;;;;;;21.03;33.45;96380.38;1042770;28;1216;-57
2021/11/23 02:00:47;;;;;;;;;;;;;;;21.01;33.52;96379.81;1044260;28;1186;-56
2021/11/23 02:01:18;;;;;;;;;;;;;;;21.01;33.68;96377.97;1044740;28;1095;-55
2021/11/23 02:01:48;;;;;;;;;;;;;;;21.01;33.60;96380.63;1044720;28;1081;-55
2021/11/23 02:02:18;;;;;;;;;;;;;;;21.01;33.54;96377.97;1044247;28;1201;-56
2021/11/23 02:02:49;;;;;;;;;;;;;;;21.02;33.68;96370.88;1044762;28;1167;-57
2021/11/23 02:03:19;;;;;;;;;;;;;;;21.01;33.88;96375.34;1044087;28;1131;-56
2021/11/23 02:03:50;;;;;;;;;;;;;;;21.01;33.62;96367.44;1044943;28;1053;-56
2021/11/23 02:04:20;;;;;;;;;;;;;;;21.01;33.73;96374.53;1040630;28;1863;-59
2021/11/23 02:04:50;;;;;;;;;;;;;;;21.02;33.60;96368.22;1044842;28;1069;-56
2021/11/23 02:05:21;;;;;;;;;;;;;;;21.02;33.32;96373.50;1045002;28;1225;-57
2021/11/23 02:05:51;;;;;;;;;;;;;;;21.02;33.82;96370.88;1044523;28;1122;-56
2021/11/23 02:06:22;;;;;;;;;;;;;;;21.02;33.61;96371.66;1041337;28;1937;-58
2021/11/23 02:06:52;;;;;;;;;;;;;;;21.01;33.46;96375.34;1040361;28;1412;-53
2021/11/23 02:07:39;;;;;;;;;;;;;;;21.02;33.82;96373.50;1037389;28;1427;-55
2021/11/23 02:08:12;;;;;;;;;;;;;;;21.01;33.51;96372.72;1035988;28;1648;-56
2021/11/23 02:08:43;;;;;;;;;;;;;;;21.01;33.52;96372.72;1034786;28;1314;-57
2021/11/23 02:09:33;;;;;;;;;;;;;;;21.02;33.53;96384.06;1039567;28;1225;-58
2021/11/23 02:10:23;;;;;;;;;;;;;;;21.01;33.40;96377.97;1044555;28;920;-58
2021/11/23 02:11:14;;;;;;;;;;;;;;;21.01;33.55;96382.44;1044461;28;1356;-58
2021/11/23 02:12:04;;;;;;;;;;;;;;;21.00;33.47;96381.66;1042861;28;1847;-58
2021/11/23 02:12:38;;;;;;;;;;;;;;;21.01;33.75;96377.19;1040140;28;1131;-58
2021/11/23 02:13:29;;;;;;;;;;;;;;;21.01;33.46;96383.25;1037597;28;1528;-58
2021/11/23 02:14:02;;;;;;;;;;;;;;;21.00;33.54;96379.00;1030670;28;1908;-59
2021/11/23 02:14:32;;;;;;;;;;;;;;;21.01;33.47;96382.44;1037493;28;1514;-58
2021/11/23 02:15:05;;;;;;;;;;;;;;;21.00;33.67;96384.28;1040451;28;1162;-58
2021/11/23 02:15:36;;;;;;;;;;;;;;;21.00;33.69;96386.91;1036695;28;1901;-58
2021/11/23 02:16:10;;;;;;;;;;;;;;;21.00;33.48;96386.91;1044799;28;914;-58
2021/11/23 02:16:42;;;;;;;;;;;;;;;21.00;33.51;96389.56;1043947;28;1258;-58
2021/11/23 02:17:33;;;;;;;;;;;;;;;21.00;33.65;96386.91;1041680;28;1906;-56
2021/11/23 02:18:14;;;;;;;;;;;;;;;21.00;33.34;96381.66;1043776;28;1072;-58
2021/11/23 02:18:56;;;;;;;;;;;;;;;21.00;33.44;96389.56;1040232;28;1391;-56
2021/11/23 02:19:26;;;;;;;;;;;;;;;20.99;33.20;96385.34;1037581;28;1972;-58
2021/11/23 02:19:59;;;;;;;;;;;;;;;21.00;33.54;96389.56;1040187;28;1217;-58
2021/11/23 02:20:34;;;;;;;;;;;;;;;20.99;33.37;96385.34;1037206;28;1441;-58
2021/11/23 02:21:24;;;;;;;;;;;;;;;20.99;33.44;96382.72;1034456;28;1733;-58
2021/11/23 02:22:00;;;;;;;;;;;;;;;21.00;33.28;96388.75;1036410;28;991;-58
2021/11/23 02:22:31;;;;;;;;;;;;;;;20.99;33.53;96385.34;1041238;28;1478;-57
2021/11/23 02:23:02;;;;;;;;;;;;;;;20.99;33.26;96385.34;1039760;28;1546;-56
2021/11/23 02:23:32;;;;;;;;;;;;;;;20.99;33.69;96388.00;1042068;28;1040;-57
2021/11/23 02:24:16;;;;;;;;;;;;;;;20.99;33.49;96382.72;1042599;28;1941;-57
2021/11/23 02:24:59;;;;;;;;;;;;;;;21.00;33.58;96391.41;1043627;28;2099;-54
2021/11/23 02:25:49;;;;;;;;;;;;;;;20.98;33.41;96388.22;1043322;28;1705;-56
2021/11/23 02:26:24;;;;;;;;;;;;;;;20.99;33.28;96387.19;1043947;28;1489;-58
2021/11/23 02:27:01;;;;;;;;;;;;;;;20.99;33.27;96397.72;1043342;28;1428;-56
2021/11/23 02:27:51;;;;;;;;;;;;;;;20.99;33.24;96388.00;1039427;28;1078;-56
2021/11/23 02:28:41;;;;;;;;;;;;;;;20.99;33.47;96384.56;1044259;28;1421;-54
2021/11/23 02:29:13;;;;;;;;;;;;;;;20.99;33.40;96390.63;1043702;28;1942;-57
2021/11/23 02:29:43;;;;;;;;;;;;;;;20.98;33.40;96383.75;1044495;28;973;-54
2021/11/23 02:30:13;;;;;;;;;;;;;;;20.98;33.46;96385.59;1044512;28;1159;-57
2021/11/23 02:30:45;;;;;;;;;;;;;;;20.99;33.31;96384.56;1044394;28;1163;-58
2021/11/23 02:31:16;;;;;;;;;;;;;;;20.99;33.47;96384.56;1042520;28;1901;-56
2021/11/23 02:31:47;;;;;;;;;;;;;;;20.99;33.41;96389.81;1044464;28;1246;-58
2021/11/23 02:32:17;;;;;;;;;;;;;;;20.97;33.32;96382.19;1042138;28;1445;-58
2021/11/23 02:33:07;;;;;;;;;;;;;;;20.97;33.29;96384.81;1042551;28;1958;-57
2021/11/23 02:33:58;;;;;;;;;;;;;;;20.97;33.52;96382.19;1044550;28;1079;-55
2021/11/23 02:34:47;;;;;;;;;;;;;;;20.98;33.39;96380.31;1041556;28;903;-56
2021/11/23 02:35:18;;;;;;;;;;;;;;;20.98;33.21;96383.75;1044865;28;1181;-56
2021/11/23 02:35:49;;;;;;;;;;;;;;;20.98;33.62;96378.50;1044763;28;1084;-59
2021/11/23 02:36:20;;;;;;;;;;;;;;;20.98;33.21;96378.50;1044331;28;1433;-58
2021/11/23 02:36:50;;;;;;;;;;;;;;;20.98;33.11;96386.41;1041874;28;1080;-57
2021/11/23 02:37:21;;;;;;;;;;;;;;;20.98;33.26;96383.75;1044220;28;1197;-58
2021/11/23 02:37:53;;;;;;;;;;;;;;;20.98;33.20;96383.75;1044125;28;1979;-58
2021/11/23 02:38:24;;;;;;;;;;;;;;;20.97;33.33;96382.19;1044428;28;1000;-55
2021/11/23 02:38:54;;;;;;;;;;;;;;;20.98;33.21;96386.41;1044831;28;1056;-56
2021/11/23 02:39:24;;;;;;;;;;;;;;;20.98;33.35;96382.97;1042877;28;1882;-58
2021/11/23 02:39:55;;;;;;;;;;;;;;;20.98;33.34;96385.59;1044754;28;1119;-52
2021/11/23 02:40:25;;;;;;;;;;;;;;;20.99;33.35;96384.56;1044643;28;1155;-56
2021/11/23 02:40:55;;;;;;;;;;;;;;;20.97;33.47;96382.19;1044780;28;1088;-56
2021/11/23 02:41:26;;;;;;;;;;;;;;;20.97;33.10;96382.19;1044816;28;1142;-57
2021/11/23 02:41:56;;;;;;;;;;;;;;;20.97;33.05;96379.56;1042899;28;1898;-56
2021/11/23 02:42:26;;;;;;;;;;;;;;;20.98;33.33;96380.31;1041643;28;965;-55
2021/11/23 02:42:57;;;;;;;;;;;;;;;20.97;33.31;96382.19;1044297;28;1096;-59
2021/11/23 02:43:27;;;;;;;;;;;;;;;20.97;33.39;96382.19;1043849;28;1111;-57
2021/11/23 02:43:57;;;;;;;;;;;;;;;20.98;33.16;96389.03;1044395;28;1158;-56
2021/11/23 02:44:28;;;;;;;;;;;;;;;20.96;33.32;96380.59;1042756;28;2105;-57
2021/11/23 02:44:58;;;;;;;;;;;;;;;20.98;33.28;96382.97;1043874;28;1434;-56
2021/11/23 02:45:29;;;;;;;;;;;;;;;20.97;33.24;96386.66;1044416;28;1169;-56
2021/11/23 02:46:00;;;;;;;;;;;;;;;20.97;33.33;96376.13;1044528;28;1068;-58
2021/11/23 02:46:31;;;;;;;;;;;;;;;20.97;33.35;96381.38;1044586;28;1226;-58
2021/11/23 02:47:02;;;;;;;;;;;;;;;20.96;33.36;96380.59;1044626;28;1516;-58